Terminal Aerodrome Forecast
Issued by NWS

Home | Current Version | Previous Version | Graphics & Text | Print | Product List | Glossary On
Versions: 1 2 3 4 5 6 7 8 9 10 11 12 13 14 15 16 17 18 19 20 21
187
FTUS41 KCLE 141127
TAFFDY
TAF
KFDY 141127Z 1412/1512 07006KT P6SM OVC050
     FM141800 30004KT P6SM VCSH OVC045
     FM150000 31004KT P6SM FEW045 BKN200=

USA.gov is the U.S. government's official web portal to all federal, state and local government web resources and services.